sensor_id;sensor_type;location;lat;lon;timestamp;temperature;humidity
26703;DHT22;14316;51.074;3.704;2023-03-01T00:01:30;2.90;99.90
26703;DHT22;14316;51.074;3.704;2023-03-01T00:03:57;2.90;99.90
26703;DHT22;14316;51.074;3.704;2023-03-01T00:06:24;2.70;99.90
26703;DHT22;14316;51.074;3.704;2023-03-01T00:08:49;2.60;99.90
26703;DHT22;14316;51.074;3.704;2023-03-01T00:11:20;2.50;99.90
26703;DHT22;14316;51.074;3.704;2023-03-01T00:13:48;2.60;99.90
26703;DHT22;14316;51.074;3.704;2023-03-01T00:16:23;2.60;99.90
26703;DHT22;14316;51.074;3.704;2023-03-01T00:18:50;2.60;99.90
26703;DHT22;14316;51.074;3.704;2023-03-01T00:21:16;2.70;99.90
26703;DHT22;14316;51.074;3.704;2023-03-01T00:23:42;2.80;99.90
26703;DHT22;14316;51.074;3.704;2023-03-01T00:26:12;2.80;99.90
26703;DHT22;14316;51.074;3.704;2023-03-01T00:28:38;2.80;99.90
26703;DHT22;14316;51.074;3.704;2023-03-01T00:31:06;2.80;99.90
26703;DHT22;14316;51.074;3.704;2023-03-01T00:33:31;2.70;99.90
26703;DHT22;14316;51.074;3.704;2023-03-01T00:35:59;2.70;99.90
26703;DHT22;14316;51.074;3.704;2023-03-01T00:38:24;2.60;99.90
26703;DHT22;14316;51.074;3.704;2023-03-01T00:40:51;2.50;99.90
26703;DHT22;14316;51.074;3.704;2023-03-01T00:43:18;2.50;99.90
26703;DHT22;14316;51.074;3.704;2023-03-01T00:45:43;2.50;99.90
26703;DHT22;14316;51.074;3.704;2023-03-01T00:48:09;2.50;99.90
26703;DHT22;14316;51.074;3.704;2023-03-01T00:50:35;2.30;99.90
26703;DHT22;14316;51.074;3.704;2023-03-01T00:53:01;2.30;99.90
26703;DHT22;14316;51.074;3.704;2023-03-01T00:55:28;2.30;99.90
26703;DHT22;14316;51.074;3.704;2023-03-01T00:57:53;2.30;99.90
26703;DHT22;14316;51.074;3.704;2023-03-01T01:00:20;2.20;99.90
26703;DHT22;14316;51.074;3.704;2023-03-01T01:02:46;2.20;99.90
26703;DHT22;14316;51.074;3.704;2023-03-01T01:05:12;2.20;99.90
26703;DHT22;14316;51.074;3.704;2023-03-01T01:07:39;2.10;99.90
26703;DHT22;14316;51.074;3.704;2023-03-01T01:10:05;2.10;99.90
26703;DHT22;14316;51.074;3.704;2023-03-01T01:12:32;2.10;99.90
26703;DHT22;14316;51.074;3.704;2023-03-01T01:14:57;2.10;99.90
26703;DHT22;14316;51.074;3.704;2023-03-01T01:17:23;2.10;99.90
26703;DHT22;14316;51.074;3.704;2023-03-01T01:19:49;2.10;99.90
26703;DHT22;14316;51.074;3.704;2023-03-01T01:22:15;2.10;99.90
26703;DHT22;14316;51.074;3.704;2023-03-01T01:24:41;2.10;99.90
26703;DHT22;14316;51.074;3.704;2023-03-01T01:27:06;2.00;99.90
26703;DHT22;14316;51.074;3.704;2023-03-01T01:29:33;2.00;99.90
26703;DHT22;14316;51.074;3.704;2023-03-01T01:31:59;2.10;99.90
26703;DHT22;14316;51.074;3.704;2023-03-01T01:34:24;2.00;99.90
26703;DHT22;14316;51.074;3.704;2023-03-01T01:36:51;2.10;99.90
26703;DHT22;14316;51.074;3.704;2023-03-01T01:39:19;2.00;99.90
26703;DHT22;14316;51.074;3.704;2023-03-01T01:41:46;2.00;99.90
26703;DHT22;14316;51.074;3.704;2023-03-01T01:52:21;2.10;99.90
26703;DHT22;14316;51.074;3.704;2023-03-01T01:54:53;2.20;99.90
26703;DHT22;14316;51.074;3.704;2023-03-01T01:57:27;2.20;99.90
26703;DHT22;14316;51.074;3.704;2023-03-01T01:59:58;2.40;99.90
26703;DHT22;14316;51.074;3.704;2023-03-01T02:02:24;2.40;99.90
26703;DHT22;14316;51.074;3.704;2023-03-01T02:05:03;2.30;99.90
26703;DHT22;14316;51.074;3.704;2023-03-01T02:07:31;2.20;99.90
26703;DHT22;14316;51.074;3.704;2023-03-01T02:09:57;2.10;99.90
26703;DHT22;14316;51.074;3.704;2023-03-01T02:12:24;2.10;99.90
26703;DHT22;14316;51.074;3.704;2023-03-01T02:14:51;2.20;99.90
26703;DHT22;14316;51.074;3.704;2023-03-01T02:17:18;2.20;99.90
26703;DHT22;14316;51.074;3.704;2023-03-01T02:22:34;2.10;99.90
26703;DHT22;14316;51.074;3.704;2023-03-01T02:25:23;2.00;99.90
26703;DHT22;14316;51.074;3.704;2023-03-01T02:27:59;2.00;99.90
26703;DHT22;14316;51.074;3.704;2023-03-01T02:30:31;2.00;99.90
26703;DHT22;14316;51.074;3.704;2023-03-01T02:32:59;2.00;99.90
26703;DHT22;14316;51.074;3.704;2023-03-01T02:35:35;2.00;99.90
26703;DHT22;14316;51.074;3.704;2023-03-01T02:38:03;2.00;99.90
26703;DHT22;14316;51.074;3.704;2023-03-01T02:40:33;1.90;99.90
26703;DHT22;14316;51.074;3.704;2023-03-01T02:43:00;1.70;99.90
26703;DHT22;14316;51.074;3.704;2023-03-01T02:45:27;1.70;99.90
26703;DHT22;14316;51.074;3.704;2023-03-01T02:47:57;1.70;99.90
26703;DHT22;14316;51.074;3.704;2023-03-01T02:56:15;1.60;99.90
26703;DHT22;14316;51.074;3.704;2023-03-01T02:58:42;1.70;99.90
26703;DHT22;14316;51.074;3.704;2023-03-01T03:01:13;1.60;99.90
26703;DHT22;14316;51.074;3.704;2023-03-01T03:03:41;1.60;99.90
26703;DHT22;14316;51.074;3.704;2023-03-01T03:06:07;1.60;99.90
26703;DHT22;14316;51.074;3.704;2023-03-01T03:08:33;1.60;99.90
26703;DHT22;14316;51.074;3.704;2023-03-01T03:10:59;1.60;99.90
26703;DHT22;14316;51.074;3.704;2023-03-01T03:13:25;1.60;99.90
26703;DHT22;14316;51.074;3.704;2023-03-01T03:15:54;1.60;99.90
26703;DHT22;14316;51.074;3.704;2023-03-01T03:18:22;1.60;99.90
26703;DHT22;14316;51.074;3.704;2023-03-01T03:20:49;1.70;99.90
26703;DHT22;14316;51.074;3.704;2023-03-01T03:23:19;1.60;99.90
26703;DHT22;14316;51.074;3.704;2023-03-01T03:25:47;1.60;99.90
26703;DHT22;14316;51.074;3.704;2023-03-01T03:28:13;1.70;99.90
26703;DHT22;14316;51.074;3.704;2023-03-01T03:30:41;1.60;99.90
26703;DHT22;14316;51.074;3.704;2023-03-01T03:33:09;1.60;99.90
26703;DHT22;14316;51.074;3.704;2023-03-01T03:35:45;1.60;99.90
26703;DHT22;14316;51.074;3.704;2023-03-01T03:38:13;1.60;99.90
26703;DHT22;14316;51.074;3.704;2023-03-01T03:40:47;1.60;99.90
26703;DHT22;14316;51.074;3.704;2023-03-01T03:43:21;1.70;99.90
26703;DHT22;14316;51.074;3.704;2023-03-01T03:45:49;1.60;99.90
26703;DHT22;14316;51.074;3.704;2023-03-01T03:48:16;1.70;99.90
26703;DHT22;14316;51.074;3.704;2023-03-01T03:50:46;1.60;99.90
26703;DHT22;14316;51.074;3.704;2023-03-01T03:53:12;1.60;99.90
26703;DHT22;14316;51.074;3.704;2023-03-01T03:55:39;1.90;99.90
26703;DHT22;14316;51.074;3.704;2023-03-01T03:58:09;1.50;99.90
26703;DHT22;14316;51.074;3.704;2023-03-01T04:00:38;1.50;99.90
26703;DHT22;14316;51.074;3.704;2023-03-01T04:03:04;1.50;99.90
26703;DHT22;14316;51.074;3.704;2023-03-01T04:05:30;1.60;99.90
26703;DHT22;14316;51.074;3.704;2023-03-01T04:07:57;1.50;99.90
26703;DHT22;14316;51.074;3.704;2023-03-01T04:10:31;1.60;99.90
26703;DHT22;14316;51.074;3.704;2023-03-01T04:12:57;1.60;99.90
26703;DHT22;14316;51.074;3.704;2023-03-01T04:15:23;1.50;99.90
26703;DHT22;14316;51.074;3.704;2023-03-01T04:17:51;1.60;99.90
26703;DHT22;14316;51.074;3.704;2023-03-01T04:20:20;1.80;99.90
26703;DHT22;14316;51.074;3.704;2023-03-01T04:22:51;1.60;99.90
26703;DHT22;14316;51.074;3.704;2023-03-01T04:25:17;1.60;99.90
26703;DHT22;14316;51.074;3.704;2023-03-01T04:27:43;1.70;99.90
26703;DHT22;14316;51.074;3.704;2023-03-01T04:30:09;1.60;99.90
26703;DHT22;14316;51.074;3.704;2023-03-01T04:32:35;1.60;99.90
26703;DHT22;14316;51.074;3.704;2023-03-01T04:35:02;1.60;99.90
26703;DHT22;14316;51.074;3.704;2023-03-01T04:37:27;1.70;99.90
26703;DHT22;14316;51.074;3.704;2023-03-01T04:39:53;1.70;99.90
26703;DHT22;14316;51.074;3.704;2023-03-01T04:42:19;1.70;99.90
26703;DHT22;14316;51.074;3.704;2023-03-01T04:44:45;1.70;99.90
26703;DHT22;14316;51.074;3.704;2023-03-01T04:47:12;1.80;99.90
26703;DHT22;14316;51.074;3.704;2023-03-01T04:49:38;1.70;99.90
26703;DHT22;14316;51.074;3.704;2023-03-01T04:52:04;1.70;99.90
26703;DHT22;14316;51.074;3.704;2023-03-01T04:54:34;1.70;99.90
26703;DHT22;14316;51.074;3.704;2023-03-01T04:57:02;1.70;99.90
26703;DHT22;14316;51.074;3.704;2023-03-01T04:59:29;1.90;99.90
26703;DHT22;14316;51.074;3.704;2023-03-01T05:01:55;1.70;99.90
26703;DHT22;14316;51.074;3.704;2023-03-01T05:04:22;1.60;99.90
26703;DHT22;14316;51.074;3.704;2023-03-01T05:06:48;1.70;99.90
26703;DHT22;14316;51.074;3.704;2023-03-01T05:09:15;1.50;99.90
26703;DHT22;14316;51.074;3.704;2023-03-01T05:11:41;1.50;99.90
26703;DHT22;14316;51.074;3.704;2023-03-01T05:14:07;1.60;99.90
26703;DHT22;14316;51.074;3.704;2023-03-01T05:16:34;1.60;99.90
26703;DHT22;14316;51.074;3.704;2023-03-01T05:19:01;1.60;99.90
26703;DHT22;14316;51.074;3.704;2023-03-01T05:21:37;1.40;99.90
26703;DHT22;14316;51.074;3.704;2023-03-01T05:24:24;1.40;99.90
26703;DHT22;14316;51.074;3.704;2023-03-01T05:26:50;1.30;99.90
26703;DHT22;14316;51.074;3.704;2023-03-01T05:29:18;1.30;99.90
26703;DHT22;14316;51.074;3.704;2023-03-01T05:31:51;1.30;99.90
26703;DHT22;14316;51.074;3.704;2023-03-01T05:34:19;1.30;99.90
26703;DHT22;14316;51.074;3.704;2023-03-01T05:36:48;1.20;99.90
26703;DHT22;14316;51.074;3.704;2023-03-01T05:39:13;1.30;99.90
26703;DHT22;14316;51.074;3.704;2023-03-01T05:41:42;1.30;99.90
26703;DHT22;14316;51.074;3.704;2023-03-01T05:44:08;1.30;99.90
26703;DHT22;14316;51.074;3.704;2023-03-01T05:46:34;1.30;99.90
26703;DHT22;14316;51.074;3.704;2023-03-01T05:48:59;1.40;99.90
26703;DHT22;14316;51.074;3.704;2023-03-01T05:51:25;1.40;99.90
26703;DHT22;14316;51.074;3.704;2023-03-01T05:53:51;1.40;99.90
26703;DHT22;14316;51.074;3.704;2023-03-01T05:56:17;1.40;99.90
26703;DHT22;14316;51.074;3.704;2023-03-01T05:58:43;1.40;99.90
26703;DHT22;14316;51.074;3.704;2023-03-01T06:01:12;1.40;99.90
26703;DHT22;14316;51.074;3.704;2023-03-01T06:03:38;1.50;99.90
26703;DHT22;14316;51.074;3.704;2023-03-01T06:06:04;1.40;99.90
26703;DHT22;14316;51.074;3.704;2023-03-01T06:08:30;1.40;99.90
26703;DHT22;14316;51.074;3.704;2023-03-01T06:10:55;1.50;99.90
26703;DHT22;14316;51.074;3.704;2023-03-01T06:13:22;1.50;99.90
26703;DHT22;14316;51.074;3.704;2023-03-01T06:15:48;1.50;99.90
26703;DHT22;14316;51.074;3.704;2023-03-01T06:18:14;1.70;99.90
26703;DHT22;14316;51.074;3.704;2023-03-01T06:20:40;1.60;99.90
26703;DHT22;14316;51.074;3.704;2023-03-01T06:23:06;1.70;99.90
26703;DHT22;14316;51.074;3.704;2023-03-01T06:25:32;1.60;99.90
26703;DHT22;14316;51.074;3.704;2023-03-01T06:27:58;1.50;99.90
26703;DHT22;14316;51.074;3.704;2023-03-01T06:30:25;1.60;99.90
26703;DHT22;14316;51.074;3.704;2023-03-01T06:32:51;1.50;99.90
26703;DHT22;14316;51.074;3.704;2023-03-01T06:35:18;1.60;99.90
26703;DHT22;14316;51.074;3.704;2023-03-01T06:37:45;1.60;99.90
26703;DHT22;14316;51.074;3.704;2023-03-01T06:40:12;1.60;99.90
26703;DHT22;14316;51.074;3.704;2023-03-01T06:42:42;1.60;99.90
26703;DHT22;14316;51.074;3.704;2023-03-01T06:45:08;1.60;99.90
26703;DHT22;14316;51.074;3.704;2023-03-01T06:47:35;1.60;99.90
26703;DHT22;14316;51.074;3.704;2023-03-01T06:50:01;1.70;99.90
26703;DHT22;14316;51.074;3.704;2023-03-01T06:52:27;1.90;99.90
26703;DHT22;14316;51.074;3.704;2023-03-01T06:54:53;2.30;99.90
26703;DHT22;14316;51.074;3.704;2023-03-01T06:57:18;2.30;99.90
26703;DHT22;14316;51.074;3.704;2023-03-01T06:59:44;2.30;99.90
26703;DHT22;14316;51.074;3.704;2023-03-01T07:02:12;2.50;99.90
26703;DHT22;14316;51.074;3.704;2023-03-01T07:04:39;2.50;99.90
26703;DHT22;14316;51.074;3.704;2023-03-01T07:07:05;2.50;99.90
26703;DHT22;14316;51.074;3.704;2023-03-01T07:09:31;2.60;99.90
26703;DHT22;14316;51.074;3.704;2023-03-01T07:11:57;2.40;99.90
26703;DHT22;14316;51.074;3.704;2023-03-01T07:14:24;2.30;99.90
26703;DHT22;14316;51.074;3.704;2023-03-01T07:16:51;2.30;99.90
26703;DHT22;14316;51.074;3.704;2023-03-01T07:19:17;2.30;99.90
26703;DHT22;14316;51.074;3.704;2023-03-01T07:21:43;2.20;99.90
26703;DHT22;14316;51.074;3.704;2023-03-01T07:24:09;2.40;99.90
26703;DHT22;14316;51.074;3.704;2023-03-01T07:26:36;2.40;99.90
26703;DHT22;14316;51.074;3.704;2023-03-01T07:29:07;2.60;99.90
26703;DHT22;14316;51.074;3.704;2023-03-01T07:31:33;2.50;99.90
26703;DHT22;14316;51.074;3.704;2023-03-01T07:33:59;2.70;99.90
26703;DHT22;14316;51.074;3.704;2023-03-01T07:36:25;3.00;99.90
26703;DHT22;14316;51.074;3.704;2023-03-01T07:38:52;3.00;99.90
26703;DHT22;14316;51.074;3.704;2023-03-01T07:41:18;3.00;99.90
26703;DHT22;14316;51.074;3.704;2023-03-01T07:43:43;3.20;99.90
26703;DHT22;14316;51.074;3.704;2023-03-01T07:46:09;3.10;99.90
26703;DHT22;14316;51.074;3.704;2023-03-01T07:48:36;3.20;99.90
26703;DHT22;14316;51.074;3.704;2023-03-01T07:51:04;3.40;99.90
26703;DHT22;14316;51.074;3.704;2023-03-01T07:53:31;3.40;99.90
26703;DHT22;14316;51.074;3.704;2023-03-01T07:56:11;3.50;99.90
26703;DHT22;14316;51.074;3.704;2023-03-01T07:58:39;3.50;99.90
26703;DHT22;14316;51.074;3.704;2023-03-01T08:01:08;3.60;99.90
26703;DHT22;14316;51.074;3.704;2023-03-01T08:03:34;3.70;99.90
26703;DHT22;14316;51.074;3.704;2023-03-01T08:06:01;3.90;99.90
26703;DHT22;14316;51.074;3.704;2023-03-01T08:08:27;4.00;99.90
26703;DHT22;14316;51.074;3.704;2023-03-01T08:10:56;4.10;99.90
26703;DHT22;14316;51.074;3.704;2023-03-01T08:13:22;4.20;99.90
26703;DHT22;14316;51.074;3.704;2023-03-01T08:15:50;4.50;99.90
26703;DHT22;14316;51.074;3.704;2023-03-01T08:18:17;4.30;99.90
26703;DHT22;14316;51.074;3.704;2023-03-01T08:20:43;4.50;99.90
26703;DHT22;14316;51.074;3.704;2023-03-01T08:23:09;4.30;99.90
26703;DHT22;14316;51.074;3.704;2023-03-01T08:25:35;4.30;99.90
26703;DHT22;14316;51.074;3.704;2023-03-01T08:28:01;4.40;99.90
26703;DHT22;14316;51.074;3.704;2023-03-01T08:30:27;4.40;99.90
26703;DHT22;14316;51.074;3.704;2023-03-01T08:32:52;4.50;99.90
26703;DHT22;14316;51.074;3.704;2023-03-01T08:35:19;4.60;99.90
26703;DHT22;14316;51.074;3.704;2023-03-01T08:37:45;4.80;99.90
26703;DHT22;14316;51.074;3.704;2023-03-01T08:40:12;5.10;99.90
26703;DHT22;14316;51.074;3.704;2023-03-01T08:42:39;5.00;99.90
26703;DHT22;14316;51.074;3.704;2023-03-01T08:45:06;5.10;99.90
26703;DHT22;14316;51.074;3.704;2023-03-01T08:47:33;5.40;99.90
26703;DHT22;14316;51.074;3.704;2023-03-01T08:50:00;5.70;99.90
26703;DHT22;14316;51.074;3.704;2023-03-01T08:52:26;5.80;99.90
26703;DHT22;14316;51.074;3.704;2023-03-01T08:54:52;6.00;99.90
26703;DHT22;14316;51.074;3.704;2023-03-01T08:57:18;6.10;99.90
26703;DHT22;14316;51.074;3.704;2023-03-01T08:59:43;6.10;99.90
26703;DHT22;14316;51.074;3.704;2023-03-01T09:02:13;6.10;99.90
26703;DHT22;14316;51.074;3.704;2023-03-01T09:04:39;6.40;99.90
26703;DHT22;14316;51.074;3.704;2023-03-01T09:07:05;6.30;99.90
26703;DHT22;14316;51.074;3.704;2023-03-01T09:09:31;6.40;99.90
26703;DHT22;14316;51.074;3.704;2023-03-01T09:11:57;6.60;99.90
26703;DHT22;14316;51.074;3.704;2023-03-01T09:14:23;6.70;99.90
26703;DHT22;14316;51.074;3.704;2023-03-01T09:16:49;7.00;99.90
26703;DHT22;14316;51.074;3.704;2023-03-01T09:19:15;7.10;99.90
26703;DHT22;14316;51.074;3.704;2023-03-01T09:21:41;7.50;99.90
26703;DHT22;14316;51.074;3.704;2023-03-01T09:24:19;7.70;99.90
26703;DHT22;14316;51.074;3.704;2023-03-01T09:26:45;7.70;99.90
26703;DHT22;14316;51.074;3.704;2023-03-01T09:29:12;7.90;99.90
26703;DHT22;14316;51.074;3.704;2023-03-01T09:31:39;8.10;99.90
26703;DHT22;14316;51.074;3.704;2023-03-01T09:34:05;8.10;99.90
26703;DHT22;14316;51.074;3.704;2023-03-01T09:36:31;8.20;99.90
26703;DHT22;14316;51.074;3.704;2023-03-01T09:38:57;8.40;99.90
26703;DHT22;14316;51.074;3.704;2023-03-01T09:44:29;8.00;99.90
26703;DHT22;14316;51.074;3.704;2023-03-01T09:46:57;7.80;99.90
26703;DHT22;14316;51.074;3.704;2023-03-01T09:49:33;7.80;99.90
26703;DHT22;14316;51.074;3.704;2023-03-01T09:52:03;7.80;99.90
26703;DHT22;14316;51.074;3.704;2023-03-01T09:54:30;7.70;99.90
26703;DHT22;14316;51.074;3.704;2023-03-01T10:02:42;8.50;99.90
26703;DHT22;14316;51.074;3.704;2023-03-01T10:05:34;8.90;99.90
26703;DHT22;14316;51.074;3.704;2023-03-01T10:10:37;8.90;99.90
26703;DHT22;14316;51.074;3.704;2023-03-01T10:13:16;9.20;99.90
26703;DHT22;14316;51.074;3.704;2023-03-01T10:15:50;9.40;99.90
26703;DHT22;14316;51.074;3.704;2023-03-01T10:18:22;9.30;99.90
26703;DHT22;14316;51.074;3.704;2023-03-01T10:21:17;9.70;99.90
26703;DHT22;14316;51.074;3.704;2023-03-01T10:23:43;9.90;99.90
26703;DHT22;14316;51.074;3.704;2023-03-01T10:29:26;10.20;99.90
26703;DHT22;14316;51.074;3.704;2023-03-01T10:31:55;10.30;99.90
26703;DHT22;14316;51.074;3.704;2023-03-01T10:34:33;10.40;99.90
26703;DHT22;14316;51.074;3.704;2023-03-01T10:37:12;10.70;99.90
26703;DHT22;14316;51.074;3.704;2023-03-01T10:42:26;10.90;99.90
26703;DHT22;14316;51.074;3.704;2023-03-01T10:44:52;11.30;99.90
26703;DHT22;14316;51.074;3.704;2023-03-01T10:47:24;12.10;99.90
26703;DHT22;14316;51.074;3.704;2023-03-01T10:49:56;12.50;99.90
26703;DHT22;14316;51.074;3.704;2023-03-01T10:52:28;12.90;99.90
26703;DHT22;14316;51.074;3.704;2023-03-01T10:54:59;12.90;99.90
26703;DHT22;14316;51.074;3.704;2023-03-01T10:57:37;12.80;99.90
26703;DHT22;14316;51.074;3.704;2023-03-01T11:00:21;13.20;99.90
26703;DHT22;14316;51.074;3.704;2023-03-01T11:05:26;12.70;94.40
26703;DHT22;14316;51.074;3.704;2023-03-01T11:07:54;11.70;95.60
26703;DHT22;14316;51.074;3.704;2023-03-01T11:10:33;11.00;96.30
26703;DHT22;14316;51.074;3.704;2023-03-01T11:13:14;11.00;97.40
26703;DHT22;14316;51.074;3.704;2023-03-01T11:15:41;11.60;99.90
26703;DHT22;14316;51.074;3.704;2023-03-01T11:18:21;12.00;95.30
26703;DHT22;14316;51.074;3.704;2023-03-01T11:20:48;12.10;97.90
26703;DHT22;14316;51.074;3.704;2023-03-01T11:23:17;13.00;96.40
26703;DHT22;14316;51.074;3.704;2023-03-01T11:25:48;13.50;94.80
26703;DHT22;14316;51.074;3.704;2023-03-01T11:28:17;13.70;95.60
26703;DHT22;14316;51.074;3.704;2023-03-01T11:31:06;14.80;94.10
26703;DHT22;14316;51.074;3.704;2023-03-01T11:36:48;17.10;93.20
26703;DHT22;14316;51.074;3.704;2023-03-01T11:39:28;18.60;92.10
26703;DHT22;14316;51.074;3.704;2023-03-01T11:42:18;20.00;81.20
26703;DHT22;14316;51.074;3.704;2023-03-01T11:44:47;20.20;73.50
26703;DHT22;14316;51.074;3.704;2023-03-01T12:06:18;17.80;62.00
26703;DHT22;14316;51.074;3.704;2023-03-01T12:37:16;24.00;51.00
26703;DHT22;14316;51.074;3.704;2023-03-01T12:40:02;22.80;48.90
26703;DHT22;14316;51.074;3.704;2023-03-01T12:42:45;20.20;49.70
26703;DHT22;14316;51.074;3.704;2023-03-01T12:45:42;18.80;52.50
26703;DHT22;14316;51.074;3.704;2023-03-01T12:50:53;19.90;51.20
26703;DHT22;14316;51.074;3.704;2023-03-01T12:55:47;21.10;49.60
26703;DHT22;14316;51.074;3.704;2023-03-01T13:08:49;21.50;52.70
26703;DHT22;14316;51.074;3.704;2023-03-01T13:11:21;22.30;49.50
26703;DHT22;14316;51.074;3.704;2023-03-01T13:13:47;22.50;52.30
26703;DHT22;14316;51.074;3.704;2023-03-01T13:19:11;20.40;51.30
26703;DHT22;14316;51.074;3.704;2023-03-01T13:21:38;19.80;50.20
26703;DHT22;14316;51.074;3.704;2023-03-01T13:24:04;19.70;52.00
26703;DHT22;14316;51.074;3.704;2023-03-01T13:26:30;19.60;50.70
26703;DHT22;14316;51.074;3.704;2023-03-01T13:28:58;21.10;51.80
26703;DHT22;14316;51.074;3.704;2023-03-01T13:34:02;20.50;52.50
26703;DHT22;14316;51.074;3.704;2023-03-01T13:39:32;21.20;51.90
26703;DHT22;14316;51.074;3.704;2023-03-01T13:42:25;21.50;51.40
26703;DHT22;14316;51.074;3.704;2023-03-01T13:44:49;21.30;49.70
26703;DHT22;14316;51.074;3.704;2023-03-01T13:47:18;20.10;50.50
26703;DHT22;14316;51.074;3.704;2023-03-01T13:49:57;20.10;52.90
26703;DHT22;14316;51.074;3.704;2023-03-01T13:52:30;20.20;52.80
26703;DHT22;14316;51.074;3.704;2023-03-01T13:54:57;20.30;52.00
26703;DHT22;14316;51.074;3.704;2023-03-01T13:57:32;20.90;52.90
26703;DHT22;14316;51.074;3.704;2023-03-01T13:59:59;22.20;50.70
26703;DHT22;14316;51.074;3.704;2023-03-01T14:02:25;22.90;49.80
26703;DHT22;14316;51.074;3.704;2023-03-01T14:04:58;23.00;49.60
26703;DHT22;14316;51.074;3.704;2023-03-01T14:07:25;22.50;47.90
26703;DHT22;14316;51.074;3.704;2023-03-01T14:09:58;23.30;50.00
26703;DHT22;14316;51.074;3.704;2023-03-01T14:18:20;22.50;47.30
26703;DHT22;14316;51.074;3.704;2023-03-01T14:20:47;23.50;52.80
26703;DHT22;14316;51.074;3.704;2023-03-01T14:23:23;25.00;46.50
26703;DHT22;14316;51.074;3.704;2023-03-01T14:25:54;24.30;46.40
26703;DHT22;14316;51.074;3.704;2023-03-01T14:30:52;23.30;49.80
26703;DHT22;14316;51.074;3.704;2023-03-01T14:33:28;22.60;46.80
26703;DHT22;14316;51.074;3.704;2023-03-01T14:36:04;23.10;50.30
26703;DHT22;14316;51.074;3.704;2023-03-01T14:38:41;24.10;46.10
26703;DHT22;14316;51.074;3.704;2023-03-01T14:41:10;24.70;48.10
26703;DHT22;14316;51.074;3.704;2023-03-01T14:43:43;24.70;44.40
26703;DHT22;14316;51.074;3.704;2023-03-01T14:46:33;24.40;44.00
26703;DHT22;14316;51.074;3.704;2023-03-01T14:49:13;21.60;46.10
26703;DHT22;14316;51.074;3.704;2023-03-01T14:51:42;20.50;48.00
26703;DHT22;14316;51.074;3.704;2023-03-01T14:54:27;19.60;50.20
26703;DHT22;14316;51.074;3.704;2023-03-01T14:56:59;18.90;49.00
26703;DHT22;14316;51.074;3.704;2023-03-01T14:59:26;18.60;50.10
26703;DHT22;14316;51.074;3.704;2023-03-01T15:01:55;18.30;51.30
26703;DHT22;14316;51.074;3.704;2023-03-01T15:04:21;18.20;50.80
26703;DHT22;14316;51.074;3.704;2023-03-01T15:06:51;17.90;51.60
26703;DHT22;14316;51.074;3.704;2023-03-01T15:09:18;17.90;52.10
26703;DHT22;14316;51.074;3.704;2023-03-01T15:11:44;18.40;49.90
26703;DHT22;14316;51.074;3.704;2023-03-01T15:14:27;19.60;50.70
26703;DHT22;14316;51.074;3.704;2023-03-01T15:16:53;19.90;50.70
26703;DHT22;14316;51.074;3.704;2023-03-01T15:19:19;19.30;49.60
26703;DHT22;14316;51.074;3.704;2023-03-01T15:21:48;19.00;49.80
26703;DHT22;14316;51.074;3.704;2023-03-01T15:24:20;19.40;50.60
26703;DHT22;14316;51.074;3.704;2023-03-01T15:26:57;19.80;51.00
26703;DHT22;14316;51.074;3.704;2023-03-01T15:29:29;19.40;50.90
26703;DHT22;14316;51.074;3.704;2023-03-01T15:34:30;19.10;49.40
26703;DHT22;14316;51.074;3.704;2023-03-01T15:36:59;19.10;53.50
26703;DHT22;14316;51.074;3.704;2023-03-01T15:45:23;18.60;53.20
26703;DHT22;14316;51.074;3.704;2023-03-01T15:47:52;18.30;53.40
26703;DHT22;14316;51.074;3.704;2023-03-01T15:50:30;18.70;49.90
26703;DHT22;14316;51.074;3.704;2023-03-01T15:52:59;18.50;50.00
26703;DHT22;14316;51.074;3.704;2023-03-01T15:55:30;18.60;51.10
26703;DHT22;14316;51.074;3.704;2023-03-01T15:58:05;18.50;53.80
26703;DHT22;14316;51.074;3.704;2023-03-01T16:00:32;17.90;51.30
26703;DHT22;14316;51.074;3.704;2023-03-01T16:02:58;17.50;52.30
26703;DHT22;14316;51.074;3.704;2023-03-01T16:05:30;18.40;52.10
26703;DHT22;14316;51.074;3.704;2023-03-01T16:07:56;18.30;50.50
26703;DHT22;14316;51.074;3.704;2023-03-01T16:10:23;17.60;53.10
26703;DHT22;14316;51.074;3.704;2023-03-01T16:12:49;17.40;52.70
26703;DHT22;14316;51.074;3.704;2023-03-01T16:15:28;17.20;54.30
26703;DHT22;14316;51.074;3.704;2023-03-01T16:17:55;16.90;53.20
26703;DHT22;14316;51.074;3.704;2023-03-01T16:20:22;16.50;53.20
26703;DHT22;14316;51.074;3.704;2023-03-01T16:22:49;15.90;54.70
26703;DHT22;14316;51.074;3.704;2023-03-01T16:25:16;15.60;58.20
26703;DHT22;14316;51.074;3.704;2023-03-01T16:27:47;15.50;57.80
26703;DHT22;14316;51.074;3.704;2023-03-01T16:30:14;15.20;56.00
26703;DHT22;14316;51.074;3.704;2023-03-01T16:32:41;15.30;57.70
26703;DHT22;14316;51.074;3.704;2023-03-01T16:35:09;14.70;56.00
26703;DHT22;14316;51.074;3.704;2023-03-01T16:37:36;14.30;60.80
26703;DHT22;14316;51.074;3.704;2023-03-01T16:40:04;13.80;58.60
26703;DHT22;14316;51.074;3.704;2023-03-01T16:42:34;12.80;60.50
26703;DHT22;14316;51.074;3.704;2023-03-01T16:45:00;11.80;62.10
26703;DHT22;14316;51.074;3.704;2023-03-01T16:47:27;11.30;64.00
26703;DHT22;14316;51.074;3.704;2023-03-01T16:49:53;10.50;67.00
26703;DHT22;14316;51.074;3.704;2023-03-01T16:52:20;10.20;68.30
26703;DHT22;14316;51.074;3.704;2023-03-01T16:54:45;9.70;67.10
26703;DHT22;14316;51.074;3.704;2023-03-01T16:57:11;9.40;70.40
26703;DHT22;14316;51.074;3.704;2023-03-01T16:59:37;9.10;72.90
26703;DHT22;14316;51.074;3.704;2023-03-01T17:02:04;9.00;70.60
26703;DHT22;14316;51.074;3.704;2023-03-01T17:04:31;8.70;72.20
26703;DHT22;14316;51.074;3.704;2023-03-01T17:06:57;8.50;75.00
26703;DHT22;14316;51.074;3.704;2023-03-01T17:09:23;8.40;76.60
26703;DHT22;14316;51.074;3.704;2023-03-01T17:11:49;8.40;75.80
26703;DHT22;14316;51.074;3.704;2023-03-01T17:14:15;8.10;76.90
26703;DHT22;14316;51.074;3.704;2023-03-01T17:16:42;8.00;79.80
26703;DHT22;14316;51.074;3.704;2023-03-01T17:19:10;7.90;79.50
26703;DHT22;14316;51.074;3.704;2023-03-01T17:21:36;7.80;82.10
26703;DHT22;14316;51.074;3.704;2023-03-01T17:24:03;7.70;82.70
26703;DHT22;14316;51.074;3.704;2023-03-01T17:26:29;7.60;84.30
26703;DHT22;14316;51.074;3.704;2023-03-01T17:28:56;7.60;86.10
26703;DHT22;14316;51.074;3.704;2023-03-01T17:31:22;7.50;87.80
26703;DHT22;14316;51.074;3.704;2023-03-01T17:33:48;7.30;85.20
26703;DHT22;14316;51.074;3.704;2023-03-01T17:36:15;7.30;90.20
26703;DHT22;14316;51.074;3.704;2023-03-01T17:38:41;7.10;89.30
26703;DHT22;14316;51.074;3.704;2023-03-01T17:41:07;7.00;90.80
26703;DHT22;14316;51.074;3.704;2023-03-01T17:43:32;7.10;90.60
26703;DHT22;14316;51.074;3.704;2023-03-01T17:45:59;6.90;92.70
26703;DHT22;14316;51.074;3.704;2023-03-01T17:48:25;6.90;93.80
26703;DHT22;14316;51.074;3.704;2023-03-01T17:50:51;7.00;94.50
26703;DHT22;14316;51.074;3.704;2023-03-01T17:53:17;6.70;94.20
26703;DHT22;14316;51.074;3.704;2023-03-01T17:55:43;6.60;91.00
26703;DHT22;14316;51.074;3.704;2023-03-01T17:58:11;6.40;90.50
26703;DHT22;14316;51.074;3.704;2023-03-01T18:00:38;6.30;90.80